createdAt,value
2023-02-04T00:10:56.996Z,100248.92
2023-02-04T00:26:00.170Z,100303.80
2023-02-04T00:41:03.508Z,100356.72
2023-02-04T00:56:08.627Z,100408.64
2023-02-04T01:11:13.887Z,100453.13
2023-02-04T01:26:18.556Z,100491.69
2023-02-04T01:41:22.615Z,100534.98
2023-02-04T01:56:27.563Z,100589.34
2023-02-04T02:11:33.263Z,100649.80
2023-02-04T02:26:36.637Z,100689.52
2023-02-04T02:41:40.463Z,100730.69
2023-02-04T02:56:43.644Z,100775.73
2023-02-04T03:11:47.048Z,100817.29
2023-02-04T03:26:50.873Z,100858.30
2023-02-04T03:41:54.196Z,100908.05
2023-02-04T03:56:57.385Z,100973.76
2023-02-04T04:12:01.195Z,101025.21
2023-02-04T04:27:04.475Z,101045.08
2023-02-04T04:42:07.809Z,101072.02
2023-02-04T04:57:10.980Z,101107.70
2023-02-04T05:12:14.250Z,101144.93
2023-02-04T05:27:17.531Z,101182.20
2023-02-04T05:42:20.930Z,101217.44
2023-02-04T05:57:24.185Z,101266.20
2023-02-04T06:12:27.396Z,101280.85
2023-02-04T06:27:30.569Z,101305.05
2023-02-04T06:42:33.879Z,101331.54
2023-02-04T06:57:37.063Z,101349.73
2023-02-04T07:12:40.424Z,101380.20
2023-02-04T07:27:43.820Z,101409.81
2023-02-04T07:42:46.976Z,101423.98
2023-02-04T07:57:52.745Z,101442.01
2023-02-04T08:12:56.102Z,101467.90
2023-02-04T08:27:59.406Z,101482.14
2023-02-04T08:43:04.959Z,101507.77
2023-02-04T08:58:08.298Z,101533.89
2023-02-04T09:13:12.029Z,101549.99
2023-02-04T09:28:17.714Z,101564.85
2023-02-04T09:43:25.962Z,101575.72
2023-02-04T09:58:33.386Z,101582.36
2023-02-04T10:13:52.517Z,101580.70
2023-02-04T10:28:59.690Z,101598.04
2023-02-04T10:44:14.882Z,101608.97
2023-02-04T10:59:27.146Z,101628.65
2023-02-04T11:14:31.862Z,101640.29
2023-02-04T11:29:43.602Z,101639.21
2023-02-04T11:44:53.726Z,101649.55
2023-02-04T11:59:57.047Z,101662.48
2023-02-04T12:15:13.731Z,101670.33
2023-02-04T12:30:18.676Z,101688.39
2023-02-04T12:45:22.018Z,101702.80
2023-02-04T13:00:27.678Z,101698.48
2023-02-04T13:15:31.526Z,101717.18
2023-02-04T13:30:34.991Z,101725.98
2023-02-04T13:45:38.517Z,101751.13
2023-02-04T14:00:41.808Z,101764.73
2023-02-04T14:15:45.200Z,101775.51
2023-02-04T14:30:48.474Z,101783.67
2023-02-04T14:45:51.825Z,101792.69
2023-02-04T15:00:55.380Z,101804.34
2023-02-04T15:15:58.736Z,101820.50
2023-02-04T15:31:02.413Z,101841.84
2023-02-04T15:46:05.812Z,101852.27
2023-02-04T16:01:09.157Z,101871.10
2023-02-04T16:16:12.584Z,101889.44
2023-02-04T16:31:16.041Z,101917.70
2023-02-04T16:46:19.866Z,101930.55
2023-02-04T17:01:23.523Z,101939.92
2023-02-04T17:16:27.707Z,101966.16
2023-02-04T17:31:31.465Z,101966.16
2023-02-04T17:46:35.419Z,101972.52
2023-02-04T18:01:42.253Z,101998.22
2023-02-04T18:16:46.772Z,102012.30
2023-02-04T18:31:53.854Z,102022.84
2023-02-04T18:46:57.921Z,102046.50
2023-02-04T19:02:01.304Z,102064.04
2023-02-04T19:17:07.764Z,102085.77
2023-02-04T19:32:24.723Z,102101.91
2023-02-04T19:47:32.921Z,102123.54
2023-02-04T20:02:39.616Z,102149.12
2023-02-04T20:17:48.890Z,102171.23
2023-02-04T20:32:56.061Z,102182.07
2023-02-04T20:53:59.535Z,102210.73
2023-02-04T21:09:04.515Z,102239.66
2023-02-04T21:24:09.002Z,102269.23
2023-02-04T21:39:13.189Z,102281.31
2023-02-04T21:54:16.772Z,102295.71
2023-02-04T22:09:20.367Z,102310.77
2023-02-04T22:24:25.710Z,102319.78
2023-02-04T22:39:29.306Z,102325.98
2023-02-04T22:54:32.769Z,102342.43
2023-02-04T23:09:36.383Z,102356.93
2023-02-04T23:24:41.060Z,102350.34
2023-02-04T23:39:44.501Z,102339.55
2023-02-04T23:54:53.233Z,102343.22
